sensor_id;sensor_type;location;lat;lon;timestamp;noise_LAeq;noise_LA_min;noise_LA_max;noise_LA01;noise_LA95
72686;Laerm;61365;52.162;4.500;2023-01-19T00:00:25;47.68;40.11;57.65;;
72686;Laerm;61365;52.162;4.500;2023-01-19T00:02:52;47.70;40.15;58.21;;
72686;Laerm;61365;52.162;4.500;2023-01-19T00:05:20;47.70;41.51;58.03;;
72686;Laerm;61365;52.162;4.500;2023-01-19T00:07:47;47.51;41.53;58.30;;
72686;Laerm;61365;52.162;4.500;2023-01-19T00:10:13;47.53;40.40;59.54;;
72686;Laerm;61365;52.162;4.500;2023-01-19T00:12:40;47.62;41.52;57.22;;
72686;Laerm;61365;52.162;4.500;2023-01-19T00:15:07;47.67;41.39;58.02;;
72686;Laerm;61365;52.162;4.500;2023-01-19T00:17:33;47.60;40.93;57.67;;
72686;Laerm;61365;52.162;4.500;2023-01-19T00:20:02;47.82;41.44;56.97;;
72686;Laerm;61365;52.162;4.500;2023-01-19T00:22:29;47.70;41.46;58.13;;
72686;Laerm;61365;52.162;4.500;2023-01-19T00:24:55;47.87;41.44;59.28;;
72686;Laerm;61365;52.162;4.500;2023-01-19T00:27:22;47.86;41.03;58.44;;
72686;Laerm;61365;52.162;4.500;2023-01-19T00:29:48;47.71;40.70;59.11;;
72686;Laerm;61365;52.162;4.500;2023-01-19T00:32:14;47.62;41.62;56.87;;
72686;Laerm;61365;52.162;4.500;2023-01-19T00:34:42;47.63;41.61;57.86;;
72686;Laerm;61365;52.162;4.500;2023-01-19T00:37:16;47.59;41.54;58.36;;
72686;Laerm;61365;52.162;4.500;2023-01-19T00:39:42;47.66;41.86;58.16;;
72686;Laerm;61365;52.162;4.500;2023-01-19T00:42:12;47.65;40.85;59.75;;
72686;Laerm;61365;52.162;4.500;2023-01-19T00:44:57;47.59;41.24;57.62;;
72686;Laerm;61365;52.162;4.500;2023-01-19T00:47:24;47.51;41.68;57.37;;
72686;Laerm;61365;52.162;4.500;2023-01-19T00:49:50;47.47;41.19;58.15;;
72686;Laerm;61365;52.162;4.500;2023-01-19T00:52:17;47.45;41.64;57.68;;
72686;Laerm;61365;52.162;4.500;2023-01-19T00:54:43;47.57;41.23;57.50;;
72686;Laerm;61365;52.162;4.500;2023-01-19T00:57:09;47.41;41.07;57.90;;
72686;Laerm;61365;52.162;4.500;2023-01-19T00:59:36;47.59;41.10;57.33;;
72686;Laerm;61365;52.162;4.500;2023-01-19T01:02:02;47.65;41.18;58.19;;
72686;Laerm;61365;52.162;4.500;2023-01-19T01:04:28;47.58;40.23;57.35;;
72686;Laerm;61365;52.162;4.500;2023-01-19T01:06:55;47.67;41.09;58.12;;
72686;Laerm;61365;52.162;4.500;2023-01-19T01:09:21;47.71;41.81;61.04;;
72686;Laerm;61365;52.162;4.500;2023-01-19T01:11:48;47.67;41.61;58.09;;
72686;Laerm;61365;52.162;4.500;2023-01-19T01:14:15;47.63;40.51;57.68;;
72686;Laerm;61365;52.162;4.500;2023-01-19T01:16:42;47.70;41.37;57.63;;
72686;Laerm;61365;52.162;4.500;2023-01-19T01:19:08;47.52;41.68;58.27;;
72686;Laerm;61365;52.162;4.500;2023-01-19T01:21:35;47.64;41.21;58.17;;
72686;Laerm;61365;52.162;4.500;2023-01-19T01:24:03;47.73;41.23;57.46;;
72686;Laerm;61365;52.162;4.500;2023-01-19T01:26:29;47.59;41.31;58.13;;
72686;Laerm;61365;52.162;4.500;2023-01-19T01:28:56;47.62;41.14;58.68;;
72686;Laerm;61365;52.162;4.500;2023-01-19T01:31:22;47.67;41.79;58.17;;
72686;Laerm;61365;52.162;4.500;2023-01-19T01:33:48;47.60;42.10;58.71;;
72686;Laerm;61365;52.162;4.500;2023-01-19T01:36:15;47.69;42.10;63.23;;
72686;Laerm;61365;52.162;4.500;2023-01-19T01:38:41;47.63;41.94;58.01;;
72686;Laerm;61365;52.162;4.500;2023-01-19T01:41:08;47.73;41.84;58.01;;
72686;Laerm;61365;52.162;4.500;2023-01-19T01:44:01;47.70;41.13;59.18;;
72686;Laerm;61365;52.162;4.500;2023-01-19T01:46:32;47.63;41.38;57.93;;
72686;Laerm;61365;52.162;4.500;2023-01-19T01:49:14;47.62;41.04;57.16;;
72686;Laerm;61365;52.162;4.500;2023-01-19T01:51:47;47.68;37.50;59.86;;
72686;Laerm;61365;52.162;4.500;2023-01-19T01:54:28;47.70;41.55;58.36;;
72686;Laerm;61365;52.162;4.500;2023-01-19T01:57:02;47.60;41.97;57.69;;
72686;Laerm;61365;52.162;4.500;2023-01-19T01:59:35;47.77;40.52;59.50;;
72686;Laerm;61365;52.162;4.500;2023-01-19T02:02:10;47.67;41.90;57.33;;
72686;Laerm;61365;52.162;4.500;2023-01-19T02:05:06;47.60;40.89;58.46;;
72686;Laerm;61365;52.162;4.500;2023-01-19T02:07:49;47.64;41.77;57.81;;
72686;Laerm;61365;52.162;4.500;2023-01-19T02:10:37;47.66;40.79;58.09;;
72686;Laerm;61365;52.162;4.500;2023-01-19T02:13:25;47.59;41.14;61.77;;
72686;Laerm;61365;52.162;4.500;2023-01-19T02:16:00;47.50;41.40;58.80;;
72686;Laerm;61365;52.162;4.500;2023-01-19T02:18:30;47.68;41.62;58.72;;
72686;Laerm;61365;52.162;4.500;2023-01-19T02:21:34;47.66;42.33;57.71;;
72686;Laerm;61365;52.162;4.500;2023-01-19T02:24:01;47.55;41.87;57.79;;
72686;Laerm;61365;52.162;4.500;2023-01-19T02:26:49;47.66;42.06;58.81;;
72686;Laerm;61365;52.162;4.500;2023-01-19T02:29:22;47.61;41.54;57.31;;
72686;Laerm;61365;52.162;4.500;2023-01-19T02:31:50;47.63;41.12;58.94;;
72686;Laerm;61365;52.162;4.500;2023-01-19T02:34:20;47.74;42.24;58.59;;
72686;Laerm;61365;52.162;4.500;2023-01-19T02:37:10;47.72;41.94;57.60;;
72686;Laerm;61365;52.162;4.500;2023-01-19T02:40:00;47.72;41.00;58.93;;
72686;Laerm;61365;52.162;4.500;2023-01-19T02:42:39;47.72;41.95;57.69;;
72686;Laerm;61365;52.162;4.500;2023-01-19T02:45:10;47.72;40.81;58.80;;
72686;Laerm;61365;52.162;4.500;2023-01-19T02:47:51;47.67;41.62;58.36;;
72686;Laerm;61365;52.162;4.500;2023-01-19T02:50:44;47.49;41.23;58.65;;
72686;Laerm;61365;52.162;4.500;2023-01-19T03:02:25;47.42;41.91;57.33;;
72686;Laerm;61365;52.162;4.500;2023-01-19T03:08:36;47.57;41.55;57.29;;
72686;Laerm;61365;52.162;4.500;2023-01-19T03:11:13;47.62;41.88;58.95;;
72686;Laerm;61365;52.162;4.500;2023-01-19T03:16:46;47.52;41.28;57.80;;
72686;Laerm;61365;52.162;4.500;2023-01-19T03:19:22;47.47;41.66;58.43;;
72686;Laerm;61365;52.162;4.500;2023-01-19T03:21:55;47.42;41.41;58.15;;
72686;Laerm;61365;52.162;4.500;2023-01-19T03:24:28;47.39;41.65;57.63;;
72686;Laerm;61365;52.162;4.500;2023-01-19T03:27:03;47.46;42.09;57.89;;
72686;Laerm;61365;52.162;4.500;2023-01-19T03:29:33;47.45;42.21;59.58;;
72686;Laerm;61365;52.162;4.500;2023-01-19T03:32:06;47.38;36.05;57.65;;
72686;Laerm;61365;52.162;4.500;2023-01-19T03:34:37;47.11;35.59;57.99;;
72686;Laerm;61365;52.162;4.500;2023-01-19T03:37:06;47.53;42.17;57.35;;
72686;Laerm;61365;52.162;4.500;2023-01-19T03:39:33;47.60;40.66;58.84;;
72686;Laerm;61365;52.162;4.500;2023-01-19T03:42:06;47.70;41.47;58.46;;
72686;Laerm;61365;52.162;4.500;2023-01-19T03:44:36;47.72;41.36;57.60;;
72686;Laerm;61365;52.162;4.500;2023-01-19T03:47:10;47.68;41.62;57.96;;
72686;Laerm;61365;52.162;4.500;2023-01-19T03:49:40;47.62;41.29;56.78;;
72686;Laerm;61365;52.162;4.500;2023-01-19T03:52:08;47.56;41.40;58.37;;
72686;Laerm;61365;52.162;4.500;2023-01-19T03:54:35;47.62;41.37;58.61;;
72686;Laerm;61365;52.162;4.500;2023-01-19T03:57:02;47.66;41.76;57.99;;
72686;Laerm;61365;52.162;4.500;2023-01-19T03:59:28;47.74;40.98;58.85;;
72686;Laerm;61365;52.162;4.500;2023-01-19T04:01:54;47.58;41.56;58.28;;
72686;Laerm;61365;52.162;4.500;2023-01-19T04:04:21;47.60;41.37;58.16;;
72686;Laerm;61365;52.162;4.500;2023-01-19T04:06:47;47.60;41.71;57.29;;
72686;Laerm;61365;52.162;4.500;2023-01-19T04:09:13;47.56;40.13;57.98;;
72686;Laerm;61365;52.162;4.500;2023-01-19T04:11:40;47.52;40.86;58.94;;
72686;Laerm;61365;52.162;4.500;2023-01-19T04:14:06;47.59;41.25;58.22;;
72686;Laerm;61365;52.162;4.500;2023-01-19T04:16:33;47.58;41.35;57.95;;
72686;Laerm;61365;52.162;4.500;2023-01-19T04:18:59;47.54;41.16;58.17;;
72686;Laerm;61365;52.162;4.500;2023-01-19T04:21:25;47.45;39.57;59.76;;
72686;Laerm;61365;52.162;4.500;2023-01-19T04:23:52;47.41;40.17;56.59;;
72686;Laerm;61365;52.162;4.500;2023-01-19T04:26:19;47.60;40.59;59.50;;
72686;Laerm;61365;52.162;4.500;2023-01-19T04:28:46;47.61;41.22;58.13;;
72686;Laerm;61365;52.162;4.500;2023-01-19T04:31:12;47.52;41.26;57.80;;
72686;Laerm;61365;52.162;4.500;2023-01-19T04:33:39;47.49;41.48;58.78;;
72686;Laerm;61365;52.162;4.500;2023-01-19T04:36:06;47.52;41.51;57.51;;
72686;Laerm;61365;52.162;4.500;2023-01-19T04:38:32;47.47;40.86;58.04;;
72686;Laerm;61365;52.162;4.500;2023-01-19T04:40:58;47.67;40.23;57.38;;
72686;Laerm;61365;52.162;4.500;2023-01-19T04:43:25;47.71;41.35;58.82;;
72686;Laerm;61365;52.162;4.500;2023-01-19T04:45:51;47.67;41.04;57.47;;
72686;Laerm;61365;52.162;4.500;2023-01-19T04:48:18;47.62;41.15;57.12;;
72686;Laerm;61365;52.162;4.500;2023-01-19T04:50:45;47.60;40.16;58.33;;
72686;Laerm;61365;52.162;4.500;2023-01-19T04:53:13;47.70;41.48;58.29;;
72686;Laerm;61365;52.162;4.500;2023-01-19T04:55:41;47.62;41.10;57.44;;
72686;Laerm;61365;52.162;4.500;2023-01-19T04:58:07;47.50;41.25;58.05;;
72686;Laerm;61365;52.162;4.500;2023-01-19T05:00:35;47.70;41.04;58.52;;
72686;Laerm;61365;52.162;4.500;2023-01-19T05:03:01;47.57;41.67;57.56;;
72686;Laerm;61365;52.162;4.500;2023-01-19T05:05:28;47.53;41.88;58.32;;
72686;Laerm;61365;52.162;4.500;2023-01-19T05:07:55;47.44;39.90;57.34;;
72686;Laerm;61365;52.162;4.500;2023-01-19T05:10:21;47.60;42.03;57.83;;
72686;Laerm;61365;52.162;4.500;2023-01-19T05:12:48;47.62;41.36;57.16;;
72686;Laerm;61365;52.162;4.500;2023-01-19T05:15:15;47.64;41.83;62.05;;
72686;Laerm;61365;52.162;4.500;2023-01-19T05:17:41;47.72;41.51;58.30;;
72686;Laerm;61365;52.162;4.500;2023-01-19T05:20:10;47.51;40.62;57.33;;
72686;Laerm;61365;52.162;4.500;2023-01-19T05:22:37;47.57;41.16;57.65;;
72686;Laerm;61365;52.162;4.500;2023-01-19T05:25:06;47.61;41.36;58.16;;
72686;Laerm;61365;52.162;4.500;2023-01-19T05:27:36;47.68;40.03;60.95;;
72686;Laerm;61365;52.162;4.500;2023-01-19T05:30:04;47.73;41.63;59.81;;
72686;Laerm;61365;52.162;4.500;2023-01-19T05:32:31;47.69;41.34;58.78;;
72686;Laerm;61365;52.162;4.500;2023-01-19T05:34:57;47.61;40.66;58.09;;
72686;Laerm;61365;52.162;4.500;2023-01-19T05:37:24;47.54;40.80;58.64;;
72686;Laerm;61365;52.162;4.500;2023-01-19T05:39:50;47.58;40.43;58.56;;
72686;Laerm;61365;52.162;4.500;2023-01-19T05:42:17;47.62;41.13;57.52;;
72686;Laerm;61365;52.162;4.500;2023-01-19T05:44:43;47.65;40.67;58.43;;
72686;Laerm;61365;52.162;4.500;2023-01-19T05:47:12;47.73;40.77;57.89;;
72686;Laerm;61365;52.162;4.500;2023-01-19T05:49:39;47.56;41.50;58.96;;
72686;Laerm;61365;52.162;4.500;2023-01-19T05:52:05;47.41;39.72;58.52;;
72686;Laerm;61365;52.162;4.500;2023-01-19T05:54:32;47.52;40.96;57.95;;
72686;Laerm;61365;52.162;4.500;2023-01-19T05:56:58;47.47;40.88;57.67;;
72686;Laerm;61365;52.162;4.500;2023-01-19T05:59:24;47.49;40.72;59.00;;
72686;Laerm;61365;52.162;4.500;2023-01-19T06:01:52;47.42;36.25;63.03;;
72686;Laerm;61365;52.162;4.500;2023-01-19T06:04:19;47.17;35.59;59.65;;
72686;Laerm;61365;52.162;4.500;2023-01-19T06:06:49;47.16;35.91;56.76;;
72686;Laerm;61365;52.162;4.500;2023-01-19T06:09:16;46.81;37.77;58.41;;
72686;Laerm;61365;52.162;4.500;2023-01-19T06:11:44;46.95;36.52;57.90;;
72686;Laerm;61365;52.162;4.500;2023-01-19T06:14:11;47.16;37.03;57.82;;
72686;Laerm;61365;52.162;4.500;2023-01-19T06:16:38;47.17;35.33;56.21;;
72686;Laerm;61365;52.162;4.500;2023-01-19T06:19:05;47.19;35.20;58.60;;
72686;Laerm;61365;52.162;4.500;2023-01-19T06:21:32;47.40;36.34;59.88;;
72686;Laerm;61365;52.162;4.500;2023-01-19T06:23:59;47.43;40.99;58.02;;
72686;Laerm;61365;52.162;4.500;2023-01-19T06:26:25;47.40;39.45;57.45;;
72686;Laerm;61365;52.162;4.500;2023-01-19T06:28:52;47.35;40.43;57.19;;
72686;Laerm;61365;52.162;4.500;2023-01-19T06:31:18;47.55;40.86;58.26;;
72686;Laerm;61365;52.162;4.500;2023-01-19T06:33:45;47.44;36.82;58.24;;
72686;Laerm;61365;52.162;4.500;2023-01-19T06:36:11;47.19;36.23;57.85;;
72686;Laerm;61365;52.162;4.500;2023-01-19T06:38:37;47.17;36.31;58.45;;
72686;Laerm;61365;52.162;4.500;2023-01-19T06:41:04;47.23;36.95;61.10;;
72686;Laerm;61365;52.162;4.500;2023-01-19T06:43:30;47.06;35.37;58.56;;
72686;Laerm;61365;52.162;4.500;2023-01-19T06:45:57;47.12;35.98;59.59;;
72686;Laerm;61365;52.162;4.500;2023-01-19T06:48:25;46.92;35.05;56.19;;
72686;Laerm;61365;52.162;4.500;2023-01-19T06:50:51;47.13;36.03;57.52;;
72686;Laerm;61365;52.162;4.500;2023-01-19T06:53:18;47.42;35.81;57.21;;
72686;Laerm;61365;52.162;4.500;2023-01-19T06:55:45;47.42;40.99;57.48;;
72686;Laerm;61365;52.162;4.500;2023-01-19T06:58:12;47.03;35.73;56.51;;
72686;Laerm;61365;52.162;4.500;2023-01-19T07:00:38;47.01;35.97;57.33;;
72686;Laerm;61365;52.162;4.500;2023-01-19T07:03:06;47.08;35.40;56.67;;
72686;Laerm;61365;52.162;4.500;2023-01-19T07:05:36;47.18;35.98;57.16;;
72686;Laerm;61365;52.162;4.500;2023-01-19T07:08:02;47.52;36.11;57.60;;
72686;Laerm;61365;52.162;4.500;2023-01-19T07:10:29;47.67;39.64;58.96;;
72686;Laerm;61365;52.162;4.500;2023-01-19T07:12:56;47.56;40.39;57.52;;
72686;Laerm;61365;52.162;4.500;2023-01-19T07:15:23;47.57;40.38;57.76;;
72686;Laerm;61365;52.162;4.500;2023-01-19T07:17:49;47.44;40.96;59.16;;
72686;Laerm;61365;52.162;4.500;2023-01-19T07:20:16;47.48;40.42;58.13;;
72686;Laerm;61365;52.162;4.500;2023-01-19T07:22:44;47.56;39.77;60.09;;
72686;Laerm;61365;52.162;4.500;2023-01-19T07:25:13;47.50;39.99;62.09;;
72686;Laerm;61365;52.162;4.500;2023-01-19T07:27:40;47.40;38.21;59.08;;
72686;Laerm;61365;52.162;4.500;2023-01-19T07:30:07;47.38;39.99;58.51;;
72686;Laerm;61365;52.162;4.500;2023-01-19T07:32:34;47.37;36.94;58.19;;
72686;Laerm;61365;52.162;4.500;2023-01-19T07:35:01;46.94;36.10;56.54;;
72686;Laerm;61365;52.162;4.500;2023-01-19T07:37:27;47.13;36.21;56.81;;
72686;Laerm;61365;52.162;4.500;2023-01-19T07:39:53;47.17;35.84;56.45;;
72686;Laerm;61365;52.162;4.500;2023-01-19T07:42:20;47.19;35.37;60.12;;
72686;Laerm;61365;52.162;4.500;2023-01-19T07:44:46;47.14;35.02;57.54;;
72686;Laerm;61365;52.162;4.500;2023-01-19T07:47:12;47.11;35.58;56.62;;
72686;Laerm;61365;52.162;4.500;2023-01-19T07:49:39;47.38;40.56;58.05;;
72686;Laerm;61365;52.162;4.500;2023-01-19T07:52:06;47.41;40.23;58.20;;
72686;Laerm;61365;52.162;4.500;2023-01-19T07:54:32;47.45;39.47;58.71;;
72686;Laerm;61365;52.162;4.500;2023-01-19T07:57:01;47.41;39.10;60.13;;
72686;Laerm;61365;52.162;4.500;2023-01-19T07:59:28;47.56;39.54;57.85;;
72686;Laerm;61365;52.162;4.500;2023-01-19T08:01:57;47.31;40.38;57.25;;
72686;Laerm;61365;52.162;4.500;2023-01-19T08:04:26;47.38;40.27;57.96;;
72686;Laerm;61365;52.162;4.500;2023-01-19T08:06:52;47.42;39.86;58.35;;
72686;Laerm;61365;52.162;4.500;2023-01-19T08:09:19;47.55;39.96;58.39;;
72686;Laerm;61365;52.162;4.500;2023-01-19T08:11:46;47.52;39.63;58.85;;
72686;Laerm;61365;52.162;4.500;2023-01-19T08:14:12;47.62;41.02;58.66;;
72686;Laerm;61365;52.162;4.500;2023-01-19T08:16:38;47.54;40.43;58.30;;
72686;Laerm;61365;52.162;4.500;2023-01-19T08:19:05;47.48;40.36;57.77;;
72686;Laerm;61365;52.162;4.500;2023-01-19T08:21:31;47.60;40.64;62.94;;
72686;Laerm;61365;52.162;4.500;2023-01-19T08:23:58;47.53;39.36;57.88;;
72686;Laerm;61365;52.162;4.500;2023-01-19T08:26:31;47.66;40.01;57.77;;
72686;Laerm;61365;52.162;4.500;2023-01-19T08:29:04;47.56;39.62;58.00;;
72686;Laerm;61365;52.162;4.500;2023-01-19T08:31:31;47.51;40.16;58.52;;
72686;Laerm;61365;52.162;4.500;2023-01-19T08:33:57;47.51;40.69;58.27;;
72686;Laerm;61365;52.162;4.500;2023-01-19T08:36:24;47.61;40.25;57.80;;
72686;Laerm;61365;52.162;4.500;2023-01-19T08:38:51;47.64;40.10;57.16;;
72686;Laerm;61365;52.162;4.500;2023-01-19T08:41:17;47.78;39.48;58.00;;
72686;Laerm;61365;52.162;4.500;2023-01-19T08:43:44;47.69;40.46;58.64;;
72686;Laerm;61365;52.162;4.500;2023-01-19T08:46:11;47.75;40.59;59.82;;
72686;Laerm;61365;52.162;4.500;2023-01-19T08:48:37;47.70;38.51;58.18;;
72686;Laerm;61365;52.162;4.500;2023-01-19T08:51:04;47.80;40.51;61.23;;
72686;Laerm;61365;52.162;4.500;2023-01-19T08:53:30;47.66;40.84;62.06;;
72686;Laerm;61365;52.162;4.500;2023-01-19T08:55:57;47.68;40.33;57.24;;
72686;Laerm;61365;52.162;4.500;2023-01-19T08:58:27;47.79;40.81;63.02;;
72686;Laerm;61365;52.162;4.500;2023-01-19T09:00:54;47.69;39.78;57.49;;
72686;Laerm;61365;52.162;4.500;2023-01-19T09:03:21;47.58;37.07;57.98;;
72686;Laerm;61365;52.162;4.500;2023-01-19T09:05:50;47.57;35.32;57.27;;
72686;Laerm;61365;52.162;4.500;2023-01-19T09:08:17;47.54;35.49;56.73;;
72686;Laerm;61365;52.162;4.500;2023-01-19T09:10:49;47.68;35.63;58.58;;
72686;Laerm;61365;52.162;4.500;2023-01-19T09:13:19;47.52;36.40;60.41;;
72686;Laerm;61365;52.162;4.500;2023-01-19T09:15:46;46.85;36.57;58.54;;
72686;Laerm;61365;52.162;4.500;2023-01-19T09:18:16;46.89;37.12;57.18;;
72686;Laerm;61365;52.162;4.500;2023-01-19T09:20:45;46.91;36.89;58.32;;
72686;Laerm;61365;52.162;4.500;2023-01-19T09:23:15;46.90;37.28;57.89;;
72686;Laerm;61365;52.162;4.500;2023-01-19T09:25:46;46.97;36.32;60.17;;
72686;Laerm;61365;52.162;4.500;2023-01-19T09:28:15;47.01;37.81;58.25;;
72686;Laerm;61365;52.162;4.500;2023-01-19T09:30:43;47.10;37.51;61.82;;
72686;Laerm;61365;52.162;4.500;2023-01-19T09:33:13;47.09;37.15;60.45;;
72686;Laerm;61365;52.162;4.500;2023-01-19T09:35:41;47.06;36.97;57.88;;
72686;Laerm;61365;52.162;4.500;2023-01-19T09:38:10;46.87;37.11;56.32;;
72686;Laerm;61365;52.162;4.500;2023-01-19T09:40:52;46.99;35.26;56.84;;
72686;Laerm;61365;52.162;4.500;2023-01-19T09:44:07;47.49;35.46;56.48;;
72686;Laerm;61365;52.162;4.500;2023-01-19T09:46:39;47.45;35.76;56.73;;
72686;Laerm;61365;52.162;4.500;2023-01-19T09:49:14;47.45;36.29;56.52;;
72686;Laerm;61365;52.162;4.500;2023-01-19T09:51:47;47.53;36.21;57.11;;
72686;Laerm;61365;52.162;4.500;2023-01-19T09:54:26;47.72;40.27;57.98;;
72686;Laerm;61365;52.162;4.500;2023-01-19T09:56:54;47.71;35.43;61.67;;
72686;Laerm;61365;52.162;4.500;2023-01-19T09:59:28;47.33;39.55;58.21;;
72686;Laerm;61365;52.162;4.500;2023-01-19T10:05:25;47.68;38.63;56.77;;
72686;Laerm;61365;52.162;4.500;2023-01-19T10:10:36;47.56;39.12;57.84;;
72686;Laerm;61365;52.162;4.500;2023-01-19T10:21:17;47.74;39.73;59.06;;
72686;Laerm;61365;52.162;4.500;2023-01-19T10:23:55;47.71;39.46;58.10;;
72686;Laerm;61365;52.162;4.500;2023-01-19T10:26:37;47.76;38.76;57.62;;
72686;Laerm;61365;52.162;4.500;2023-01-19T10:29:30;47.67;38.21;57.36;;
72686;Laerm;61365;52.162;4.500;2023-01-19T10:32:28;47.57;35.62;57.74;;
72686;Laerm;61365;52.162;4.500;2023-01-19T10:34:56;47.59;35.71;57.32;;
72686;Laerm;61365;52.162;4.500;2023-01-19T10:37:38;47.70;35.86;57.14;;
72686;Laerm;61365;52.162;4.500;2023-01-19T10:42:37;47.64;35.66;57.43;;
72686;Laerm;61365;52.162;4.500;2023-01-19T10:45:27;47.81;35.75;60.97;;
72686;Laerm;61365;52.162;4.500;2023-01-19T10:48:04;47.78;35.78;57.58;;
72686;Laerm;61365;52.162;4.500;2023-01-19T10:50:37;47.73;35.10;57.45;;
72686;Laerm;61365;52.162;4.500;2023-01-19T10:53:20;47.90;36.22;62.09;;
72686;Laerm;61365;52.162;4.500;2023-01-19T10:58:36;47.47;39.46;59.35;;
72686;Laerm;61365;52.162;4.500;2023-01-19T11:01:16;47.58;40.06;57.85;;
72686;Laerm;61365;52.162;4.500;2023-01-19T11:03:43;47.65;39.80;57.53;;
72686;Laerm;61365;52.162;4.500;2023-01-19T11:08:44;47.65;40.27;58.17;;
72686;Laerm;61365;52.162;4.500;2023-01-19T11:11:12;47.77;38.73;58.26;;
72686;Laerm;61365;52.162;4.500;2023-01-19T11:13:40;47.85;39.71;62.23;;
72686;Laerm;61365;52.162;4.500;2023-01-19T11:16:37;47.74;39.15;61.81;;
72686;Laerm;61365;52.162;4.500;2023-01-19T11:19:25;47.61;40.04;57.42;;
72686;Laerm;61365;52.162;4.500;2023-01-19T11:22:07;47.67;39.47;58.36;;
72686;Laerm;61365;52.162;4.500;2023-01-19T11:24:37;47.65;38.89;57.44;;
72686;Laerm;61365;52.162;4.500;2023-01-19T11:27:04;47.57;40.13;58.53;;
72686;Laerm;61365;52.162;4.500;2023-01-19T11:29:31;47.59;38.51;57.39;;
72686;Laerm;61365;52.162;4.500;2023-01-19T11:32:14;47.68;38.45;57.99;;
72686;Laerm;61365;52.162;4.500;2023-01-19T11:34:44;47.62;39.47;57.58;;
72686;Laerm;61365;52.162;4.500;2023-01-19T11:39:49;47.57;39.70;56.76;;
72686;Laerm;61365;52.162;4.500;2023-01-19T11:42:18;47.62;40.57;57.42;;
72686;Laerm;61365;52.162;4.500;2023-01-19T11:50:39;47.67;37.17;57.80;;
72686;Laerm;61365;52.162;4.500;2023-01-19T11:53:33;47.76;35.99;59.70;;
72686;Laerm;61365;52.162;4.500;2023-01-19T11:56:13;47.78;39.80;61.30;;
72686;Laerm;61365;52.162;4.500;2023-01-19T11:58:43;47.73;34.10;64.37;;
72686;Laerm;61365;52.162;4.500;2023-01-19T12:03:56;47.76;39.90;63.12;;
72686;Laerm;61365;52.162;4.500;2023-01-19T12:06:32;47.74;36.43;57.93;;
72686;Laerm;61365;52.162;4.500;2023-01-19T12:11:45;47.61;36.60;57.68;;
72686;Laerm;61365;52.162;4.500;2023-01-19T12:14:28;47.58;36.20;56.31;;
72686;Laerm;61365;52.162;4.500;2023-01-19T12:17:02;47.72;36.86;57.71;;
72686;Laerm;61365;52.162;4.500;2023-01-19T12:19:44;47.60;35.05;61.10;;
72686;Laerm;61365;52.162;4.500;2023-01-19T12:22:18;47.58;39.55;58.13;;
72686;Laerm;61365;52.162;4.500;2023-01-19T12:25:21;47.62;37.61;57.60;;
72686;Laerm;61365;52.162;4.500;2023-01-19T12:27:48;47.56;39.08;58.45;;
72686;Laerm;61365;52.162;4.500;2023-01-19T12:30:25;47.56;40.43;57.49;;
72686;Laerm;61365;52.162;4.500;2023-01-19T12:38:52;47.62;35.95;61.31;;
72686;Laerm;61365;52.162;4.500;2023-01-19T12:46:55;47.68;38.90;58.11;;
72686;Laerm;61365;52.162;4.500;2023-01-19T12:49:54;47.63;39.07;57.64;;
72686;Laerm;61365;52.162;4.500;2023-01-19T12:52:28;47.57;39.85;57.44;;
72686;Laerm;61365;52.162;4.500;2023-01-19T13:01:16;47.58;36.66;57.15;;
72686;Laerm;61365;52.162;4.500;2023-01-19T13:04:05;47.61;40.15;59.66;;
72686;Laerm;61365;52.162;4.500;2023-01-19T13:14:42;47.63;39.37;57.08;;
72686;Laerm;61365;52.162;4.500;2023-01-19T13:17:31;47.64;39.31;57.15;;
72686;Laerm;61365;52.162;4.500;2023-01-19T13:20:19;47.68;38.63;58.69;;
72686;Laerm;61365;52.162;4.500;2023-01-19T13:22:50;47.71;36.20;63.10;;
72686;Laerm;61365;52.162;4.500;2023-01-19T13:25:31;47.69;36.32;56.70;;
72686;Laerm;61365;52.162;4.500;2023-01-19T13:28:00;47.65;36.45;56.65;;
72686;Laerm;61365;52.162;4.500;2023-01-19T13:30:28;47.69;36.83;57.16;;
72686;Laerm;61365;52.162;4.500;2023-01-19T13:33:05;47.75;36.29;56.80;;
72686;Laerm;61365;52.162;4.500;2023-01-19T13:35:34;47.64;36.59;59.68;;
72686;Laerm;61365;52.162;4.500;2023-01-19T13:38:02;47.68;36.43;56.50;;
72686;Laerm;61365;52.162;4.500;2023-01-19T13:40:36;47.75;36.15;56.37;;
72686;Laerm;61365;52.162;4.500;2023-01-19T13:43:15;47.51;38.90;58.14;;
72686;Laerm;61365;52.162;4.500;2023-01-19T13:45:48;47.51;39.96;57.51;;
72686;Laerm;61365;52.162;4.500;2023-01-19T13:48:19;47.66;38.86;60.55;;
72686;Laerm;61365;52.162;4.500;2023-01-19T13:51:03;47.74;39.80;62.08;;
72686;Laerm;61365;52.162;4.500;2023-01-19T13:53:31;47.66;40.36;58.11;;
72686;Laerm;61365;52.162;4.500;2023-01-19T13:56:20;47.70;38.94;59.04;;
72686;Laerm;61365;52.162;4.500;2023-01-19T13:59:09;47.68;36.93;60.93;;
72686;Laerm;61365;52.162;4.500;2023-01-19T14:01:44;47.72;36.70;57.48;;
72686;Laerm;61365;52.162;4.500;2023-01-19T14:04:25;47.73;36.92;56.89;;
72686;Laerm;61365;52.162;4.500;2023-01-19T14:06:54;47.65;36.13;57.43;;
72686;Laerm;61365;52.162;4.500;2023-01-19T14:09:22;47.64;36.40;56.43;;
72686;Laerm;61365;52.162;4.500;2023-01-19T14:12:14;47.60;36.27;57.69;;
72686;Laerm;61365;52.162;4.500;2023-01-19T14:14:43;47.69;37.94;62.01;;
72686;Laerm;61365;52.162;4.500;2023-01-19T14:17:25;47.57;38.26;57.75;;
72686;Laerm;61365;52.162;4.500;2023-01-19T14:19:58;47.54;39.67;57.51;;
72686;Laerm;61365;52.162;4.500;2023-01-19T14:22:44;47.69;39.05;57.73;;
72686;Laerm;61365;52.162;4.500;2023-01-19T14:25:43;47.74;40.02;57.85;;
72686;Laerm;61365;52.162;4.500;2023-01-19T14:31:17;46.84;37.29;57.43;;
72686;Laerm;61365;52.162;4.500;2023-01-19T14:33:46;47.13;37.41;59.96;;
72686;Laerm;61365;52.162;4.500;2023-01-19T14:38:47;46.97;37.74;56.82;;
72686;Laerm;61365;52.162;4.500;2023-01-19T14:41:26;46.95;36.23;59.64;;
72686;Laerm;61365;52.162;4.500;2023-01-19T14:43:55;47.64;36.60;59.81;;
72686;Laerm;61365;52.162;4.500;2023-01-19T14:46:23;47.57;36.78;57.03;;
72686;Laerm;61365;52.162;4.500;2023-01-19T14:49:02;47.61;37.09;57.44;;
72686;Laerm;61365;52.162;4.500;2023-01-19T14:51:30;47.75;39.95;57.44;;
72686;Laerm;61365;52.162;4.500;2023-01-19T14:53:59;47.80;40.11;57.44;;
72686;Laerm;61365;52.162;4.500;2023-01-19T14:56:30;47.60;40.47;58.33;;
72686;Laerm;61365;52.162;4.500;2023-01-19T14:59:00;47.53;39.30;57.15;;
72686;Laerm;61365;52.162;4.500;2023-01-19T15:01:27;47.61;40.04;58.54;;
72686;Laerm;61365;52.162;4.500;2023-01-19T15:03:57;47.52;39.00;61.27;;
72686;Laerm;61365;52.162;4.500;2023-01-19T15:06:25;47.58;40.01;61.01;;
72686;Laerm;61365;52.162;4.500;2023-01-19T15:08:57;47.48;39.40;57.41;;
72686;Laerm;61365;52.162;4.500;2023-01-19T15:11:36;47.73;40.23;60.00;;
72686;Laerm;61365;52.162;4.500;2023-01-19T15:14:02;47.54;39.40;57.00;;
72686;Laerm;61365;52.162;4.500;2023-01-19T15:16:34;47.62;39.97;57.74;;
72686;Laerm;61365;52.162;4.500;2023-01-19T15:19:01;47.39;39.28;59.54;;
72686;Laerm;61365;52.162;4.500;2023-01-19T15:21:27;47.54;39.71;57.68;;
72686;Laerm;61365;52.162;4.500;2023-01-19T15:23:54;47.66;37.36;61.45;;
72686;Laerm;61365;52.162;4.500;2023-01-19T15:26:23;47.48;35.81;56.62;;
72686;Laerm;61365;52.162;4.500;2023-01-19T15:28:51;47.49;36.85;56.57;;